Terminal Aerodrome Forecast
Issued by NWS Cleveland, OH

Home | Current Version | Previous Version | Text Only | Print | Product List | Glossary Off
Versions: 1 2 3 4 5 6 7 8 9 10 11 12 13 14 15 16 17 18 19 20 21 22

000
FTUS41 KCLE 172000 AAA
TAFMFD
TAF AMD
KMFD 172029Z 1720/1818 35004KT P6SM VCSH SCT030 OVC080
      TEMPO 1720/1723 5SM -SHRA BKN030
     FM180000 08003KT P6SM BKN080
     FM180600 09005KT 4SM BR SCT015 BKN080
      TEMPO 1810/1813 2SM BR OVC007=

USA.gov is the U.S. government's official web portal to all federal, state and local government web resources and services.